G. O. Sars — LMEL — position and weather

sailwx.info

Track history (hours):
 
Tides and Currents Weather Stations Pressure Air Temp Water Temp Dewpoint Dewpoint Depression Visibility Wind Speed Wind Dir Waves Ship Positions

Oceanographic research ship G. O. Sars (Norway)

Detailed information on ship capabilities available from University of Delaware's Ocean Information Center and ARCUS's ALIAS (Arctic Logistics Information and Support) project.

Last reported at 2017-Apr-23 07:30 UTC. Time now 2017-Apr-23 07:56 UTC.
Position N 61°55' E 005°30'.

Type: Other ship. MMSI: 257105000.

Date/timePositionNaut miles runAvg speedWind from/ knotsBaromVisibWave heightAir tempDewpointWater temp
2017-Apr-23 07:30N 61°55' E 005°30'0 0.9
2017-Apr-23 07:00N 61°55' E 005°29'0 0.0
2017-Apr-23 06:30N 61°55' E 005°29'0 0.2
2017-Apr-23 06:00N 61°55' E 005°29'4 7.4
2017-Apr-23 05:30N 61°54' E 005°21'510.3
2017-Apr-23 05:00N 61°53' E 005°10'4 7.2
2017-Apr-23 04:30N 61°49' E 005°14'611.1
2017-Apr-23 04:00N 61°47' E 005°03'5 9.6
2017-Apr-23 03:28N 61°43' E 004°57'510.9
2017-Apr-23 03:00N 61°38' E 004°59'5 9.2
2017-Apr-23 02:30N 61°33' E 005°00'510.3
2017-Apr-23 02:00N 61°28' E 004°58'611.0
2017-Apr-23 01:30N 61°24' E 004°50'510.2
2017-Apr-23 00:59N 61°19' E 004°50'5 9.9
2017-Apr-23 00:30N 61°15' E 004°56'5 9.8
2017-Apr-23 00:00N 61°11' E 005°02'510.2
2017-Apr-22 23:30N 61°08' E 005°10'510.2
2017-Apr-22 23:00N 61°05' E 005°19'3 5.1
2017-Apr-22 22:30N 61°05' E 005°14'4 8.6
2017-Apr-22 22:00N 61°05' E 005°05'510.5
2017-Apr-22 21:30N 61°02' E 004°56'4 7.6
2017-Apr-22 21:00N 61°01' E 004°49'5 9.3
2017-Apr-22 20:30N 60°58' E 004°41'4 8.9
2017-Apr-22 20:00N 60°54' E 004°46'4 8.9
2017-Apr-22 19:30N 60°50' E 004°44'4 9.0
2017-Apr-22 19:00N 60°45' E 004°48'5 9.5
2017-Apr-22 18:30N 60°41' E 004°51'5 9.9
2017-Apr-22 18:00N 60°36' E 004°54'5 9.9
2017-Apr-22 17:29N 60°31' E 004°57'510.3
2017-Apr-22 17:00N 60°27' E 005°01'510.3
2017-Apr-22 16:30N 60°23' E 005°09'4 7.6
2017-Apr-22 16:00N 60°25' E 005°17'3 6.3
2017-Apr-22 15:30N 60°28' E 005°15'3 6.4
2017-Apr-22 15:00N 60°31' E 005°11'0 0.4
2017-Apr-22 14:30N 60°31' E 005°11'6 5.9
2017-Apr-22 13:30N 60°25' E 005°16'0 0.5
2017-Apr-22 13:00N 60°25' E 005°16'3 6.5
2017-Apr-22 12:30N 60°28' E 005°15'2 3.1
2017-Apr-22 12:00N 60°30' E 005°14'3 6.2
2017-Apr-22 11:30N 60°27' E 005°16'3 5.5
2017-Apr-22 11:00N 60°24' E 005°17'3 6.3
2017-Apr-22 10:30N 60°27' E 005°16'3 6.1
2017-Apr-22 10:00N 60°30' E 005°14'3 6.5
2017-Apr-22 09:29N 60°27' E 005°15'3 5.8
2017-Apr-22 09:00N 60°24' E 005°17'1 1.4
2017-Apr-22 08:30N 60°24' E 005°17'0 0.0
2017-Apr-22 08:00N 60°24' E 005°17'0 0.0
2017-Apr-22 07:30N 60°24' E 005°17'1 1.2
2017-Apr-22 07:00N 60°23' E 005°18'0 0.0
2017-Apr-22 06:29N 60°23' E 005°18'0 0.0
2017-Apr-22 06:00N 60°23' E 005°18'0 0.0
2017-Apr-22 05:29N 60°23' E 005°18'0 0.0
2017-Apr-22 04:59N 60°23' E 005°18'0 0.0
2017-Apr-22 04:30N 60°23' E 005°18'0 0.0
2017-Apr-22 04:00N 60°23' E 005°18'0 0.0
2017-Apr-22 03:30N 60°23' E 005°18'0 0.0
2017-Apr-22 02:59N 60°23' E 005°18'0 0.0
2017-Apr-22 02:30N 60°23' E 005°18'0 0.0
2017-Apr-22 02:00N 60°23' E 005°18'0 0.0
2017-Apr-22 01:30N 60°23' E 005°18'0 0.0
2017-Apr-22 01:00N 60°23' E 005°18'0 0.0
2017-Apr-22 00:30N 60°23' E 005°18'0 0.0
2017-Apr-22 00:00N 60°23' E 005°18'0 0.0
2017-Apr-21 23:30N 60°23' E 005°18'0 0.0
2017-Apr-21 23:00N 60°23' E 005°18'0 0.0
2017-Apr-21 22:30N 60°23' E 005°18'0 0.0
2017-Apr-21 21:59N 60°23' E 005°18'0 0.0
2017-Apr-21 21:30N 60°23' E 005°18'0 0.0
2017-Apr-21 21:00N 60°23' E 005°18'0 0.0
2017-Apr-21 20:30N 60°23' E 005°18'0 0.0
2017-Apr-21 20:00N 60°23' E 005°18'0 0.0
2017-Apr-21 19:30N 60°23' E 005°18'0 0.0
2017-Apr-21 19:00N 60°23' E 005°18'0 0.0
2017-Apr-21 18:30N 60°23' E 005°18'0 0.0
2017-Apr-21 18:00N 60°23' E 005°18'0 0.0
2017-Apr-21 17:30N 60°23' E 005°18'0 0.0
2017-Apr-21 17:00N 60°23' E 005°18'0 0.0
2017-Apr-21 16:30N 60°23' E 005°18'0 0.0
2017-Apr-21 16:00N 60°23' E 005°18'0 0.0
2017-Apr-21 15:30N 60°23' E 005°18'0 0.0
2017-Apr-21 15:00N 60°23' E 005°18'0 0.0
2017-Apr-21 14:30N 60°23' E 005°18'0 0.0
2017-Apr-21 13:30N 60°23' E 005°18'0 0.0
2017-Apr-21 13:00N 60°23' E 005°18'0 0.0
2017-Apr-21 12:30N 60°23' E 005°18'0 0.0
2017-Apr-21 12:00N 60°23' E 005°18'0 0.0
2017-Apr-21 11:30N 60°23' E 005°18'0 0.0
2017-Apr-21 11:00N 60°23' E 005°18'0 0.0
2017-Apr-21 10:30N 60°23' E 005°18'0 0.0
2017-Apr-21 10:00N 60°23' E 005°18'0 0.1
2017-Apr-21 09:28N 60°23' E 005°18'3 6.1
2017-Apr-21 08:59N 60°26' E 005°16'1 1.3
2017-Apr-21 08:30N 60°25' E 005°16'0 0.2
2017-Apr-21 07:54N 60°26' E 005°16'0 0.1
2017-Apr-21 07:30N 60°26' E 005°16'0 0.0
2017-Apr-21 07:00N 60°26' E 005°16'3 5.0
2017-Apr-21 06:30N 60°23' E 005°18'0 0.0
2017-Apr-21 06:00N 60°23' E 005°18'0 0.0
2017-Apr-21 05:30N 60°23' E 005°18'0 0.0
2017-Apr-21 05:00N 60°23' E 005°18'0 0.0
2017-Apr-21 04:30N 60°23' E 005°18'0 0.0
2017-Apr-21 04:00N 60°23' E 005°18'0 0.0
2017-Apr-21 03:30N 60°23' E 005°18'0 0.0
2017-Apr-21 03:00N 60°23' E 005°18'0 0.0
2017-Apr-21 02:30N 60°23' E 005°18'0 0.0
2017-Apr-21 02:00N 60°23' E 005°18'0 0.0
2017-Apr-21 01:30N 60°23' E 005°18'0 0.0
2017-Apr-21 01:00N 60°23' E 005°18'0 0.0
2017-Apr-21 00:30N 60°23' E 005°18'0 0.0
2017-Apr-21 00:00N 60°23' E 005°18'0 0.0
2017-Apr-20 23:30N 60°23' E 005°18'0 0.0
2017-Apr-20 23:00N 60°23' E 005°18'0 0.0
2017-Apr-20 22:30N 60°23' E 005°18'0 0.0
2017-Apr-20 22:00N 60°23' E 005°18'0 0.0
2017-Apr-20 21:30N 60°23' E 005°18'0 0.0
2017-Apr-20 21:00N 60°23' E 005°18'0 0.0
2017-Apr-20 20:30N 60°23' E 005°18'0 0.0
2017-Apr-20 20:00N 60°23' E 005°18'0 0.0
2017-Apr-20 19:30N 60°23' E 005°18'0 0.0
2017-Apr-20 19:00N 60°23' E 005°18'0 0.0
2017-Apr-20 18:30N 60°23' E 005°18'0 0.0
2017-Apr-20 18:00N 60°23' E 005°18'0 0.0
2017-Apr-20 17:30N 60°23' E 005°18'0 0.0
2017-Apr-20 17:00N 60°23' E 005°18'0 0.0
2017-Apr-20 16:30N 60°23' E 005°18'0 0.0
2017-Apr-20 16:00N 60°23' E 005°18'0 0.0
2017-Apr-20 15:30N 60°23' E 005°18'0 0.0
2017-Apr-20 15:00N 60°23' E 005°18'0 0.0
2017-Apr-20 14:30N 60°23' E 005°18'0 0.0
2017-Apr-20 13:30N 60°23' E 005°18'0 0.0
2017-Apr-20 13:00N 60°23' E 005°18'0 0.0
2017-Apr-20 12:30N 60°23' E 005°18'0 0.0
2017-Apr-20 12:00N 60°23' E 005°18'0 0.0
2017-Apr-20 11:30N 60°23' E 005°18'0 0.0
2017-Apr-20 11:00N 60°23' E 005°18'0 0.0
2017-Apr-20 10:30N 60°23' E 005°18'0 0.0
2017-Apr-20 10:00N 60°23' E 005°18'0 0.0
2017-Apr-20 09:30N 60°23' E 005°18'0 0.0
2017-Apr-20 09:00N 60°23' E 005°18'0 0.0
2017-Apr-20 08:30N 60°23' E 005°18'0 0.0
2017-Apr-20 08:00N 60°23' E 005°18'0 0.0
2017-Apr-20 07:30N 60°23' E 005°18'0 0.0
2017-Apr-20 06:59N 60°23' E 005°18'0 0.0
2017-Apr-20 06:29N 60°23' E 005°18'0 0.0
2017-Apr-20 05:59N 60°23' E 005°18'0 0.0
2017-Apr-20 05:29N 60°23' E 005°18'0 0.0
2017-Apr-20 04:59N 60°23' E 005°18'0 0.0
2017-Apr-20 04:29N 60°23' E 005°18'0 0.0
2017-Apr-20 03:59N 60°23' E 005°18'0 0.0
2017-Apr-20 03:29N 60°23' E 005°18'0 0.0
2017-Apr-20 02:59N 60°23' E 005°18'0 0.0
2017-Apr-20 02:29N 60°23' E 005°18'0 0.0
2017-Apr-20 01:59N 60°23' E 005°18'0 0.0
2017-Apr-20 01:29N 60°23' E 005°18'0 0.0
2017-Apr-20 00:59N 60°23' E 005°18'0 0.0
2017-Apr-20 00:29N 60°23' E 005°18'0 0.0
2017-Apr-19 23:59N 60°23' E 005°18'0 0.0
2017-Apr-19 23:29N 60°23' E 005°18'0 0.0
2017-Apr-19 22:59N 60°23' E 005°18'0 0.0
2017-Apr-19 22:29N 60°23' E 005°18'0 0.0
2017-Apr-19 21:59N 60°23' E 005°18'0 0.0
2017-Apr-19 21:29N 60°23' E 005°18'0 0.0
2017-Apr-19 20:59N 60°23' E 005°18'0 0.0
2017-Apr-19 20:29N 60°23' E 005°18'0 0.0
2017-Apr-19 19:59N 60°23' E 005°18'0 0.0
2017-Apr-19 19:29N 60°23' E 005°18'0 0.0
2017-Apr-19 18:59N 60°23' E 005°18'0 0.0
2017-Apr-19 18:29N 60°23' E 005°18'0 0.0
2017-Apr-19 17:59N 60°23' E 005°18'0 0.0
2017-Apr-19 17:29N 60°23' E 005°18'0 0.0
2017-Apr-19 16:59N 60°23' E 005°18'0 0.0
2017-Apr-19 16:29N 60°23' E 005°18'0 0.0
2017-Apr-19 15:59N 60°23' E 005°18'0 0.1
2017-Apr-19 15:29N 60°23' E 005°18'4 7.5
2017-Apr-19 15:00N 60°27' E 005°16'1 2.2
2017-Apr-19 14:28N 60°27' E 005°19'0 0.0
2017-Apr-19 13:28N 60°27' E 005°19'0 0.6
2017-Apr-19 13:00N 60°27' E 005°18'4 7.3
2017-Apr-19 12:30N 60°24' E 005°13'610.8
2017-Apr-19 12:00N 60°25' E 005°03'611.5
2017-Apr-19 11:30N 60°31' E 004°58'611.2
2017-Apr-19 11:00N 60°36' E 004°54'611.4
2017-Apr-19 10:30N 60°41' E 004°50'510.9
2017-Apr-19 10:00N 60°46' E 004°47'5 9.7
2017-Apr-19 09:30N 60°51' E 004°46'611.1
2017-Apr-19 09:00N 60°57' E 004°45'611.2
2017-Apr-19 08:30N 61°02' E 004°45'5 9.7
2017-Apr-19 08:00N 61°07' E 004°45'510.2
2017-Apr-19 07:30N 61°12' E 004°43'5 9.7
2017-Apr-19 07:00N 61°17' E 004°47'510.0
2017-Apr-19 06:30N 61°22' E 004°48'510.3
2017-Apr-19 06:00N 61°26' E 004°53'510.5
2017-Apr-19 05:30N 61°31' E 004°60'5 9.8
2017-Apr-19 05:00N 61°35' E 004°57'510.0
2017-Apr-19 04:30N 61°40' E 004°58'5 9.6
2017-Apr-19 04:00N 61°45' E 004°58'510.8
2017-Apr-19 03:30N 61°48' E 005°07'5 9.8
2017-Apr-19 03:00N 61°51' E 005°16'4 9.1
2017-Apr-19 02:31N 61°54' E 005°09'4 7.2
2017-Apr-19 02:00N 61°57' E 005°09'510.6
2017-Apr-19 01:30N 62°03' E 005°08'510.8
2017-Apr-19 01:01N 62°08' E 005°05'5 9.7
2017-Apr-19 00:30N 62°13' E 005°07'610.9
2017-Apr-19 00:00N 62°17' E 005°14'510.7
2017-Apr-18 23:30N 62°21' E 005°21'510.8
2017-Apr-18 23:00N 62°25' E 005°30'510.3
2017-Apr-18 22:30N 62°27' E 005°40'611.1
2017-Apr-18 22:00N 62°27' E 005°52'510.8
2017-Apr-18 21:30N 62°28' E 006°03'611.4
2017-Apr-18 21:00N 62°33' E 006°10'611.2
2017-Apr-18 20:30N 62°37' E 006°18'510.5
2017-Apr-18 20:00N 62°41' E 006°26'511.0
2017-Apr-18 19:31N 62°45' E 006°33'511.0
2017-Apr-18 19:01N 62°50' E 006°39'510.6
2017-Apr-18 18:30N 62°54' E 006°46'510.3
2017-Apr-18 18:00N 62°58' E 006°53'510.4
2017-Apr-18 17:29N 63°01' E 007°03'510.8
2017-Apr-18 17:00N 63°03' E 007°14'510.9
2017-Apr-18 16:30N 63°04' E 007°25'511.0
2017-Apr-18 16:00N 63°07' E 007°36'611.1
2017-Apr-18 15:30N 63°10' E 007°46'611.1
2017-Apr-18 15:01N 63°13' E 007°56'611.2
2017-Apr-18 14:30N 63°16' E 008°07'1111.1
2017-Apr-18 13:30N 63°23' E 008°27'511.0
2017-Apr-18 13:00N 63°25' E 008°37'611.0
2017-Apr-18 12:30N 63°27' E 008°49'611.3
2017-Apr-18 11:59N 63°29' E 009°01'511.2
2017-Apr-18 11:31N 63°32' E 009°12'510.2
2017-Apr-18 11:00N 63°37' E 009°16'510.5
2017-Apr-18 10:31N 63°42' E 009°16'510.7
2017-Apr-18 10:01N 63°47' E 009°16'510.4
2017-Apr-18 09:30N 63°52' E 009°21'510.4
2017-Apr-18 09:00N 63°57' E 009°26'510.9
2017-Apr-18 08:31N 64°02' E 009°31'611.1
2017-Apr-18 08:00N 64°07' E 009°37'611.3
2017-Apr-18 07:30N 64°12' E 009°43'611.0
2017-Apr-18 07:00N 64°16' E 009°51'611.5
2017-Apr-18 06:30N 64°20' E 009°60'611.4
2017-Apr-18 06:00N 64°24' E 010°09'611.4
2017-Apr-18 05:30N 64°28' E 010°18'611.0
2017-Apr-18 05:00N 64°32' E 010°28'611.3
2017-Apr-18 04:30N 64°36' E 010°37'611.4
2017-Apr-18 04:00N 64°40' E 010°46'611.2
2017-Apr-18 03:30N 64°44' E 010°56'611.2
2017-Apr-18 03:00N 64°48' E 011°06'5 9.9
2017-Apr-18 02:30N 64°51' E 011°14'4 8.9
2017-Apr-18 02:00N 64°54' E 011°22'510.9
2017-Apr-18 01:30N 64°58' E 011°32'510.7
2017-Apr-18 01:01N 65°01' E 011°41'611.2
2017-Apr-18 00:30N 65°06' E 011°48'611.2
2017-Apr-18 00:00N 65°11' E 011°52'611.1
2017-Apr-17 23:30N 65°17' E 011°57'611.1
2017-Apr-17 23:00N 65°21' E 012°04'510.4
2017-Apr-17 22:30N 65°25' E 011°56'510.7
2017-Apr-17 22:00N 65°30' E 012°01'511.1
2017-Apr-17 21:30N 65°35' E 012°08'610.8
2017-Apr-17 21:00N 65°40' E 012°14'611.4
2017-Apr-17 20:29N 65°45' E 012°18'611.3
2017-Apr-17 20:00N 65°51' E 012°22'510.7
2017-Apr-17 19:30N 65°56' E 012°24'511.2
2017-Apr-17 19:00N 66°01' E 012°32'611.2
2017-Apr-17 18:30N 66°05' E 012°41'511.1
2017-Apr-17 18:00N 66°09' E 012°49'611.1
2017-Apr-17 17:30N 66°14' E 012°54'611.1
2017-Apr-17 17:01N 66°20' E 012°57'611.2
2017-Apr-17 16:31N 66°25' E 012°59'510.8
2017-Apr-17 16:00N 66°31' E 012°58'5 9.5
2017-Apr-17 15:30N 66°35' E 013°05'510.6
2017-Apr-17 15:00N 66°40' E 013°08'611.3
2017-Apr-17 14:30N 66°45' E 013°13'1110.6
2017-Apr-17 13:30N 66°54' E 013°27'5 9.0
2017-Apr-17 13:00N 66°58' E 013°33'510.9
2017-Apr-17 12:30N 67°01' E 013°44'510.9
2017-Apr-17 12:00N 67°05' E 013°55'510.7
2017-Apr-17 11:30N 67°09' E 014°02'511.0
2017-Apr-17 11:01N 67°14' E 014°09'510.5
2017-Apr-17 10:31N 67°17' E 014°20'1 1.9
2017-Apr-17 09:58N 67°17' E 014°23'0 0.0
2017-Apr-17 09:28N 67°17' E 014°23'0 0.0
2017-Apr-17 08:58N 67°17' E 014°23'0 0.0
2017-Apr-17 08:28N 67°17' E 014°23'0 0.0
2017-Apr-17 07:58N 67°17' E 014°23'0 0.0
2017-Apr-17 07:28N 67°17' E 014°23'0 0.0
2017-Apr-17 06:58N 67°17' E 014°23'0 0.0
2017-Apr-17 06:28N 67°17' E 014°23'0 0.0
2017-Apr-17 05:58N 67°17' E 014°23'0 0.0
2017-Apr-17 05:31N 67°17' E 014°23'0 0.0
2017-Apr-17 05:01N 67°17' E 014°23'0 0.0
2017-Apr-17 04:30N 67°17' E 014°23'0 0.0
2017-Apr-17 04:00N 67°17' E 014°23'0 0.0
2017-Apr-17 03:30N 67°17' E 014°23'0 0.0
2017-Apr-17 03:00N 67°17' E 014°23'0 0.0
2017-Apr-17 02:30N 67°17' E 014°23'0 0.0
2017-Apr-17 02:00N 67°17' E 014°23'0 0.0
2017-Apr-17 01:30N 67°17' E 014°23'0 0.0
2017-Apr-17 01:00N 67°17' E 014°23'0 0.0
2017-Apr-17 00:30N 67°17' E 014°23'0 0.0
2017-Apr-17 00:00N 67°17' E 014°23'0 0.0
2017-Apr-16 23:30N 67°17' E 014°23'0 0.0
2017-Apr-16 23:00N 67°17' E 014°23'0 0.0
2017-Apr-16 22:30N 67°17' E 014°23'0 0.0
2017-Apr-16 22:00N 67°17' E 014°23'0 0.0
2017-Apr-16 21:30N 67°17' E 014°23'0 0.0
2017-Apr-16 21:00N 67°17' E 014°23'0 0.0
2017-Apr-16 20:30N 67°17' E 014°23'0 0.0
2017-Apr-16 20:00N 67°17' E 014°23'0 0.0
2017-Apr-16 19:30N 67°17' E 014°23'0 0.0
2017-Apr-16 19:00N 67°17' E 014°23'0 0.1
2017-Apr-16 18:30N 67°17' E 014°23'3 6.4
2017-Apr-16 18:01N 67°20' E 014°23'611.3
2017-Apr-16 17:30N 67°26' E 014°27'510.9
2017-Apr-16 17:00N 67°31' E 014°22'611.3
2017-Apr-16 16:30N 67°36' E 014°19'611.3
2017-Apr-16 16:01N 67°42' E 014°16'611.2
2017-Apr-16 15:30N 67°48' E 014°18'611.1
2017-Apr-16 15:00N 67°53' E 014°21'511.2
2017-Apr-16 14:30N 67°58' E 014°25'1111.2
2017-Apr-16 13:30N 68°09' E 014°31'0 0.4
2017-Apr-16 12:59N 68°09' E 014°31'0 0.2
2017-Apr-16 12:29N 68°09' E 014°31'1 1.1
2017-Apr-16 11:59N 68°09' E 014°30'4 8.5
2017-Apr-16 11:31N 68°12' E 014°37'3 5.1
2017-Apr-16 11:00N 68°14' E 014°41'0 0.0
2017-Apr-16 10:30N 68°14' E 014°41'2 4.4
2017-Apr-16 09:58N 68°17' E 014°42'0 0.0
2017-Apr-16 09:28N 68°17' E 014°42'0 0.0
2017-Apr-16 08:58N 68°17' E 014°42'2 4.1
2017-Apr-16 08:29N 68°15' E 014°41'5 9.4
2017-Apr-16 07:59N 68°11' E 014°35'3 4.8
2017-Apr-16 07:28N 68°09' E 014°30'0 0.1
2017-Apr-16 06:58N 68°09' E 014°30'1 1.7
2017-Apr-16 06:29N 68°09' E 014°27'0 0.3
2017-Apr-16 05:58N 68°09' E 014°28'5 9.6
2017-Apr-16 05:30N 68°08' E 014°40'510.7
2017-Apr-16 05:00N 68°11' E 014°50'510.8
2017-Apr-16 04:30N 68°16' E 014°58'510.2
2017-Apr-16 04:00N 68°21' E 015°02'510.3
2017-Apr-16 03:30N 68°26' E 015°09'4 8.1
2017-Apr-16 03:00N 68°29' E 015°12'5 9.9
2017-Apr-16 02:30N 68°29' E 014°58'510.3
2017-Apr-16 02:00N 68°28' E 014°45'510.6
2017-Apr-16 01:30N 68°28' E 014°30'510.1
2017-Apr-16 01:00N 68°31' E 014°18'4 8.0
2017-Apr-16 00:30N 68°34' E 014°11'4 7.9
2017-Apr-16 00:00N 68°37' E 014°07'510.1
2017-Apr-15 23:31N 68°42' E 014°09'5 9.9
2017-Apr-15 23:00N 68°47' E 014°12'510.1
2017-Apr-15 22:30N 68°52' E 014°19'3 5.9
2017-Apr-15 21:58N 68°54' E 014°23'0 0.0
2017-Apr-15 21:28N 68°54' E 014°23'0 0.0
2017-Apr-15 20:58N 68°54' E 014°23'0 0.0
2017-Apr-15 20:28N 68°54' E 014°23'0 0.0
2017-Apr-15 19:58N 68°54' E 014°23'0 0.0
2017-Apr-15 19:28N 68°54' E 014°23'0 0.3
2017-Apr-15 18:58N 68°55' E 014°23'0 0.2
2017-Apr-15 18:28N 68°55' E 014°23'0 0.1
2017-Apr-15 17:58N 68°55' E 014°23'0 0.0
2017-Apr-15 17:28N 68°55' E 014°23'0 0.0
2017-Apr-15 16:58N 68°54' E 014°23'0 0.0
2017-Apr-15 16:28N 68°54' E 014°23'0 0.0
2017-Apr-15 15:58N 68°54' E 014°23'0 0.0
2017-Apr-15 15:28N 68°54' E 014°23'0 0.0
2017-Apr-15 14:58N 68°54' E 014°23'0 0.0
2017-Apr-15 14:28N 68°54' E 014°23'0 0.0
2017-Apr-15 13:28N 68°54' E 014°23'0 0.0
2017-Apr-15 12:58N 68°54' E 014°23'0 0.0
2017-Apr-15 12:28N 68°54' E 014°23'0 0.0
2017-Apr-15 11:58N 68°54' E 014°23'0 0.1
2017-Apr-15 11:28N 68°54' E 014°23'1 1.4
2017-Apr-15 11:00N 68°55' E 014°25'1 2.1
2017-Apr-15 10:30N 68°56' E 014°24'5 9.8
2017-Apr-15 10:00N 68°60' E 014°16'510.1
2017-Apr-15 09:30N 69°04' E 014°10'510.4
2017-Apr-15 09:00N 69°09' E 014°02'0 0.9
2017-Apr-15 08:29N 69°09' E 014°02'0 0.1
2017-Apr-15 07:59N 69°09' E 014°02'0 0.0
2017-Apr-15 07:29N 69°09' E 014°02'0 0.0
2017-Apr-15 06:59N 69°09' E 014°02'0 0.0
2017-Apr-15 06:29N 69°09' E 014°02'0 0.0
2017-Apr-15 05:59N 69°09' E 014°02'0 0.2
2017-Apr-15 05:29N 69°09' E 014°02'0 0.5
2017-Apr-15 04:59N 69°09' E 014°02'0 0.5
2017-Apr-15 04:29N 69°09' E 014°03'0 0.5
2017-Apr-15 03:59N 69°09' E 014°03'0 0.5
2017-Apr-15 03:29N 69°08' E 014°04'0 0.4
2017-Apr-15 02:59N 69°08' E 014°04'0 0.5
2017-Apr-15 02:29N 69°08' E 014°04'0 0.5
2017-Apr-15 01:59N 69°08' E 014°05'0 0.5
2017-Apr-15 01:29N 69°08' E 014°05'0 0.5
2017-Apr-15 00:59N 69°08' E 014°06'0 0.5
2017-Apr-15 00:29N 69°07' E 014°06'0 0.5
2017-Apr-14 23:59N 69°07' E 014°07'0 0.4
2017-Apr-14 23:29N 69°07' E 014°07'0 0.5
2017-Apr-14 22:59N 69°07' E 014°08'0 0.6
2017-Apr-14 22:29N 69°07' E 014°08'0 0.6
2017-Apr-14 21:59N 69°06' E 014°09'0 0.7
2017-Apr-14 21:29N 69°06' E 014°09'0 0.7
2017-Apr-14 20:59N 69°06' E 014°10'0 0.6
2017-Apr-14 20:29N 69°06' E 014°11'0 0.6
2017-Apr-14 19:59N 69°05' E 014°11'0 0.6
2017-Apr-14 19:29N 69°05' E 014°12'0 0.4
2017-Apr-14 18:59N 69°05' E 014°12'0 0.5
2017-Apr-14 18:29N 69°05' E 014°13'0 0.5
2017-Apr-14 17:59N 69°05' E 014°13'0 0.5
2017-Apr-14 17:29N 69°05' E 014°14'0 0.5
2017-Apr-14 16:59N 69°04' E 014°14'0 0.5
2017-Apr-14 16:29N 69°04' E 014°14'0 0.4
2017-Apr-14 15:59N 69°04' E 014°14'0 0.5
2017-Apr-14 15:29N 69°04' E 014°14'0 0.4
2017-Apr-14 14:59N 69°03' E 014°15'0 0.1
2017-Apr-14 14:29N 69°03' E 014°15'1 0.6
2017-Apr-14 13:29N 69°03' E 014°15'0 0.9
2017-Apr-14 12:59N 69°02' E 014°15'0 0.0
2017-Apr-14 12:29N 69°02' E 014°15'0 0.6
2017-Apr-14 11:59N 69°03' E 014°15'0 0.9
2017-Apr-14 11:29N 69°03' E 014°15'0 0.7
2017-Apr-14 10:59N 69°03' E 014°16'0 0.7
2017-Apr-14 10:29N 69°02' E 014°15'0 0.1
2017-Apr-14 09:59N 69°02' E 014°15'0 0.0
2017-Apr-14 09:29N 69°02' E 014°15'0 0.0
2017-Apr-14 09:00N 69°02' E 014°15'610.8
2017-Apr-14 08:29N 68°57' E 014°16'2 3.2
2017-Apr-14 07:58N 68°55' E 014°16'0 0.3
2017-Apr-14 07:28N 68°55' E 014°17'0 0.1
2017-Apr-14 06:58N 68°55' E 014°17'0 0.0
2017-Apr-14 06:28N 68°55' E 014°17'0 0.0
2017-Apr-14 05:58N 68°55' E 014°17'0 0.1
2017-Apr-14 05:28N 68°55' E 014°17'0 0.1
2017-Apr-14 04:58N 68°55' E 014°17'0 0.1
2017-Apr-14 04:28N 68°55' E 014°17'0 0.2
2017-Apr-14 03:58N 68°55' E 014°17'0 0.2
2017-Apr-14 03:28N 68°55' E 014°17'0 0.0
2017-Apr-14 02:58N 68°55' E 014°17'0 0.1
2017-Apr-14 02:28N 68°55' E 014°17'0 0.1
2017-Apr-14 01:58N 68°55' E 014°17'0 0.1
2017-Apr-14 01:28N 68°55' E 014°17'0 0.1
2017-Apr-14 00:58N 68°55' E 014°17'0 0.1
2017-Apr-14 00:28N 68°55' E 014°17'0 0.2
2017-Apr-13 23:58N 68°55' E 014°17'0 0.1
2017-Apr-13 23:28N 68°55' E 014°17'0 0.2
2017-Apr-13 22:58N 68°55' E 014°17'0 0.1
2017-Apr-13 22:28N 68°55' E 014°17'0 0.2
2017-Apr-13 21:58N 68°55' E 014°17'0 0.2
2017-Apr-13 21:28N 68°55' E 014°17'0 0.1
2017-Apr-13 20:58N 68°55' E 014°17'0 0.2
2017-Apr-13 20:28N 68°55' E 014°17'0 0.2
2017-Apr-13 19:58N 68°55' E 014°17'0 0.4
2017-Apr-13 19:28N 68°55' E 014°18'0 0.5
2017-Apr-13 18:58N 68°55' E 014°18'0 0.6
2017-Apr-13 18:28N 68°55' E 014°19'0 0.7
2017-Apr-13 17:58N 68°55' E 014°20'0 0.7
2017-Apr-13 17:28N 68°55' E 014°21'0 0.4
2017-Apr-13 16:58N 68°55' E 014°22'0 0.3
2017-Apr-13 16:28N 68°55' E 014°22'0 0.3
2017-Apr-13 15:58N 68°55' E 014°22'0 0.5
2017-Apr-13 15:28N 68°55' E 014°22'0 0.4
2017-Apr-13 14:58N 68°55' E 014°23'0 0.3
2017-Apr-13 14:28N 68°55' E 014°23'0 0.3
2017-Apr-13 13:28N 68°55' E 014°23'0 0.1
2017-Apr-13 12:58N 68°55' E 014°23'0 0.0
2017-Apr-13 12:28N 68°55' E 014°23'0 0.1
2017-Apr-13 11:58N 68°55' E 014°23'0 0.0
2017-Apr-13 11:28N 68°55' E 014°23'0 0.2
2017-Apr-13 10:58N 68°54' E 014°23'0 0.0
2017-Apr-13 10:28N 68°54' E 014°23'0 0.0
2017-Apr-13 09:58N 68°54' E 014°23'0 0.0
2017-Apr-13 09:28N 68°54' E 014°23'0 0.0
2017-Apr-13 08:58N 68°54' E 014°23'0 0.2
2017-Apr-13 08:28N 68°54' E 014°23'0 0.0
2017-Apr-13 07:58N 68°54' E 014°23'  
Track history (hours):
 
Tides and Currents Weather Stations Pressure Air Temp Water Temp Dewpoint Dewpoint Depression Visibility Wind Speed Wind Dir Waves Ship Positions

Oceanographic research ship G. O. Sars (Norway)

Detailed information on ship capabilities available from University of Delaware's Ocean Information Center and ARCUS's ALIAS (Arctic Logistics Information and Support) project.

Last reported at 2017-Apr-23 07:30 UTC. Time now 2017-Apr-23 07:56 UTC.
Position N 61°55' E 005°30'.

Type: Other ship. MMSI: 257105000.

Date/timePositionNaut miles runAvg speedWind from/ knotsBaromVisibWave heightAir tempDewpointWater temp
2017-Apr-23 07:30N 61°55' E 005°30'0 0.9
2017-Apr-23 07:00N 61°55' E 005°29'0 0.0
2017-Apr-23 06:30N 61°55' E 005°29'0 0.2
2017-Apr-23 06:00N 61°55' E 005°29'4 7.4
2017-Apr-23 05:30N 61°54' E 005°21'510.3
2017-Apr-23 05:00N 61°53' E 005°10'4 7.2
2017-Apr-23 04:30N 61°49' E 005°14'611.1
2017-Apr-23 04:00N 61°47' E 005°03'5 9.6
2017-Apr-23 03:28N 61°43' E 004°57'510.9
2017-Apr-23 03:00N 61°38' E 004°59'5 9.2
2017-Apr-23 02:30N 61°33' E 005°00'510.3
2017-Apr-23 02:00N 61°28' E 004°58'611.0
2017-Apr-23 01:30N 61°24' E 004°50'510.2
2017-Apr-23 00:59N 61°19' E 004°50'5 9.9
2017-Apr-23 00:30N 61°15' E 004°56'5 9.8
2017-Apr-23 00:00N 61°11' E 005°02'510.2
2017-Apr-22 23:30N 61°08' E 005°10'510.2
2017-Apr-22 23:00N 61°05' E 005°19'3 5.1
2017-Apr-22 22:30N 61°05' E 005°14'4 8.6
2017-Apr-22 22:00N 61°05' E 005°05'510.5
2017-Apr-22 21:30N 61°02' E 004°56'4 7.6
2017-Apr-22 21:00N 61°01' E 004°49'5 9.3
2017-Apr-22 20:30N 60°58' E 004°41'4 8.9
2017-Apr-22 20:00N 60°54' E 004°46'4 8.9
2017-Apr-22 19:30N 60°50' E 004°44'4 9.0
2017-Apr-22 19:00N 60°45' E 004°48'5 9.5
2017-Apr-22 18:30N 60°41' E 004°51'5 9.9
2017-Apr-22 18:00N 60°36' E 004°54'5 9.9
2017-Apr-22 17:29N 60°31' E 004°57'510.3
2017-Apr-22 17:00N 60°27' E 005°01'510.3
2017-Apr-22 16:30N 60°23' E 005°09'4 7.6
2017-Apr-22 16:00N 60°25' E 005°17'3 6.3
2017-Apr-22 15:30N 60°28' E 005°15'3 6.4
2017-Apr-22 15:00N 60°31' E 005°11'0 0.4
2017-Apr-22 14:30N 60°31' E 005°11'6 5.9
2017-Apr-22 13:30N 60°25' E 005°16'0 0.5
2017-Apr-22 13:00N 60°25' E 005°16'3 6.5
2017-Apr-22 12:30N 60°28' E 005°15'2 3.1
2017-Apr-22 12:00N 60°30' E 005°14'3 6.2
2017-Apr-22 11:30N 60°27' E 005°16'3 5.5
2017-Apr-22 11:00N 60°24' E 005°17'3 6.3
2017-Apr-22 10:30N 60°27' E 005°16'3 6.1
2017-Apr-22 10:00N 60°30' E 005°14'3 6.5
2017-Apr-22 09:29N 60°27' E 005°15'3 5.8
2017-Apr-22 09:00N 60°24' E 005°17'1 1.4
2017-Apr-22 08:30N 60°24' E 005°17'0 0.0
2017-Apr-22 08:00N 60°24' E 005°17'0 0.0
2017-Apr-22 07:30N 60°24' E 005°17'1 1.2
2017-Apr-22 07:00N 60°23' E 005°18'0 0.0
2017-Apr-22 06:29N 60°23' E 005°18'0 0.0
2017-Apr-22 06:00N 60°23' E 005°18'0 0.0
2017-Apr-22 05:29N 60°23' E 005°18'0 0.0
2017-Apr-22 04:59N 60°23' E 005°18'0 0.0
2017-Apr-22 04:30N 60°23' E 005°18'0 0.0
2017-Apr-22 04:00N 60°23' E 005°18'0 0.0
2017-Apr-22 03:30N 60°23' E 005°18'0 0.0
2017-Apr-22 02:59N 60°23' E 005°18'0 0.0
2017-Apr-22 02:30N 60°23' E 005°18'0 0.0
2017-Apr-22 02:00N 60°23' E 005°18'0 0.0
2017-Apr-22 01:30N 60°23' E 005°18'0 0.0
2017-Apr-22 01:00N 60°23' E 005°18'0 0.0
2017-Apr-22 00:30N 60°23' E 005°18'0 0.0
2017-Apr-22 00:00N 60°23' E 005°18'0 0.0
2017-Apr-21 23:30N 60°23' E 005°18'0 0.0
2017-Apr-21 23:00N 60°23' E 005°18'0 0.0
2017-Apr-21 22:30N 60°23' E 005°18'0 0.0
2017-Apr-21 21:59N 60°23' E 005°18'0 0.0
2017-Apr-21 21:30N 60°23' E 005°18'0 0.0
2017-Apr-21 21:00N 60°23' E 005°18'0 0.0
2017-Apr-21 20:30N 60°23' E 005°18'0 0.0
2017-Apr-21 20:00N 60°23' E 005°18'0 0.0
2017-Apr-21 19:30N 60°23' E 005°18'0 0.0
2017-Apr-21 19:00N 60°23' E 005°18'0 0.0
2017-Apr-21 18:30N 60°23' E 005°18'0 0.0
2017-Apr-21 18:00N 60°23' E 005°18'0 0.0
2017-Apr-21 17:30N 60°23' E 005°18'0 0.0
2017-Apr-21 17:00N 60°23' E 005°18'0 0.0
2017-Apr-21 16:30N 60°23' E 005°18'0 0.0
2017-Apr-21 16:00N 60°23' E 005°18'0 0.0
2017-Apr-21 15:30N 60°23' E 005°18'0 0.0
2017-Apr-21 15:00N 60°23' E 005°18'0 0.0
2017-Apr-21 14:30N 60°23' E 005°18'0 0.0
2017-Apr-21 13:30N 60°23' E 005°18'0 0.0
2017-Apr-21 13:00N 60°23' E 005°18'0 0.0
2017-Apr-21 12:30N 60°23' E 005°18'0 0.0
2017-Apr-21 12:00N 60°23' E 005°18'0 0.0
2017-Apr-21 11:30N 60°23' E 005°18'0 0.0
2017-Apr-21 11:00N 60°23' E 005°18'0 0.0
2017-Apr-21 10:30N 60°23' E 005°18'0 0.0
2017-Apr-21 10:00N 60°23' E 005°18'0 0.1
2017-Apr-21 09:28N 60°23' E 005°18'3 6.1
2017-Apr-21 08:59N 60°26' E 005°16'1 1.3
2017-Apr-21 08:30N 60°25' E 005°16'0 0.2
2017-Apr-21 07:54N 60°26' E 005°16'0 0.1
2017-Apr-21 07:30N 60°26' E 005°16'0 0.0
2017-Apr-21 07:00N 60°26' E 005°16'3 5.0
2017-Apr-21 06:30N 60°23' E 005°18'0 0.0
2017-Apr-21 06:00N 60°23' E 005°18'0 0.0
2017-Apr-21 05:30N 60°23' E 005°18'0 0.0
2017-Apr-21 05:00N 60°23' E 005°18'0 0.0
2017-Apr-21 04:30N 60°23' E 005°18'0 0.0
2017-Apr-21 04:00N 60°23' E 005°18'0 0.0
2017-Apr-21 03:30N 60°23' E 005°18'0 0.0
2017-Apr-21 03:00N 60°23' E 005°18'0 0.0
2017-Apr-21 02:30N 60°23' E 005°18'0 0.0
2017-Apr-21 02:00N 60°23' E 005°18'0 0.0
2017-Apr-21 01:30N 60°23' E 005°18'0 0.0
2017-Apr-21 01:00N 60°23' E 005°18'0 0.0
2017-Apr-21 00:30N 60°23' E 005°18'0 0.0
2017-Apr-21 00:00N 60°23' E 005°18'0 0.0
2017-Apr-20 23:30N 60°23' E 005°18'0 0.0
2017-Apr-20 23:00N 60°23' E 005°18'0 0.0
2017-Apr-20 22:30N 60°23' E 005°18'0 0.0
2017-Apr-20 22:00N 60°23' E 005°18'0 0.0
2017-Apr-20 21:30N 60°23' E 005°18'0 0.0
2017-Apr-20 21:00N 60°23' E 005°18'0 0.0
2017-Apr-20 20:30N 60°23' E 005°18'0 0.0
2017-Apr-20 20:00N 60°23' E 005°18'0 0.0
2017-Apr-20 19:30N 60°23' E 005°18'0 0.0
2017-Apr-20 19:00N 60°23' E 005°18'0 0.0
2017-Apr-20 18:30N 60°23' E 005°18'0 0.0
2017-Apr-20 18:00N 60°23' E 005°18'0 0.0
2017-Apr-20 17:30N 60°23' E 005°18'0 0.0
2017-Apr-20 17:00N 60°23' E 005°18'0 0.0
2017-Apr-20 16:30N 60°23' E 005°18'0 0.0
2017-Apr-20 16:00N 60°23' E 005°18'0 0.0
2017-Apr-20 15:30N 60°23' E 005°18'0 0.0
2017-Apr-20 15:00N 60°23' E 005°18'0 0.0
2017-Apr-20 14:30N 60°23' E 005°18'0 0.0
2017-Apr-20 13:30N 60°23' E 005°18'0 0.0
2017-Apr-20 13:00N 60°23' E 005°18'0 0.0
2017-Apr-20 12:30N 60°23' E 005°18'0 0.0
2017-Apr-20 12:00N 60°23' E 005°18'0 0.0
2017-Apr-20 11:30N 60°23' E 005°18'0 0.0
2017-Apr-20 11:00N 60°23' E 005°18'0 0.0
2017-Apr-20 10:30N 60°23' E 005°18'0 0.0
2017-Apr-20 10:00N 60°23' E 005°18'0 0.0
2017-Apr-20 09:30N 60°23' E 005°18'0 0.0
2017-Apr-20 09:00N 60°23' E 005°18'0 0.0
2017-Apr-20 08:30N 60°23' E 005°18'0 0.0
2017-Apr-20 08:00N 60°23' E 005°18'0 0.0
2017-Apr-20 07:30N 60°23' E 005°18'0 0.0
2017-Apr-20 06:59N 60°23' E 005°18'0 0.0
2017-Apr-20 06:29N 60°23' E 005°18'0 0.0
2017-Apr-20 05:59N 60°23' E 005°18'0 0.0
2017-Apr-20 05:29N 60°23' E 005°18'0 0.0
2017-Apr-20 04:59N 60°23' E 005°18'0 0.0
2017-Apr-20 04:29N 60°23' E 005°18'0 0.0
2017-Apr-20 03:59N 60°23' E 005°18'0 0.0
2017-Apr-20 03:29N 60°23' E 005°18'0 0.0
2017-Apr-20 02:59N 60°23' E 005°18'0 0.0
2017-Apr-20 02:29N 60°23' E 005°18'0 0.0
2017-Apr-20 01:59N 60°23' E 005°18'0 0.0
2017-Apr-20 01:29N 60°23' E 005°18'0 0.0
2017-Apr-20 00:59N 60°23' E 005°18'0 0.0
2017-Apr-20 00:29N 60°23' E 005°18'0 0.0
2017-Apr-19 23:59N 60°23' E 005°18'0 0.0
2017-Apr-19 23:29N 60°23' E 005°18'0 0.0
2017-Apr-19 22:59N 60°23' E 005°18'0 0.0
2017-Apr-19 22:29N 60°23' E 005°18'0 0.0
2017-Apr-19 21:59N 60°23' E 005°18'0 0.0
2017-Apr-19 21:29N 60°23' E 005°18'0 0.0
2017-Apr-19 20:59N 60°23' E 005°18'0 0.0
2017-Apr-19 20:29N 60°23' E 005°18'0 0.0
2017-Apr-19 19:59N 60°23' E 005°18'0 0.0
2017-Apr-19 19:29N 60°23' E 005°18'0 0.0
2017-Apr-19 18:59N 60°23' E 005°18'0 0.0
2017-Apr-19 18:29N 60°23' E 005°18'0 0.0
2017-Apr-19 17:59N 60°23' E 005°18'0 0.0
2017-Apr-19 17:29N 60°23' E 005°18'0 0.0
2017-Apr-19 16:59N 60°23' E 005°18'0 0.0
2017-Apr-19 16:29N 60°23' E 005°18'0 0.0
2017-Apr-19 15:59N 60°23' E 005°18'0 0.1
2017-Apr-19 15:29N 60°23' E 005°18'4 7.5
2017-Apr-19 15:00N 60°27' E 005°16'1 2.2
2017-Apr-19 14:28N 60°27' E 005°19'0 0.0
2017-Apr-19 13:28N 60°27' E 005°19'0 0.6
2017-Apr-19 13:00N 60°27' E 005°18'4 7.3
2017-Apr-19 12:30N 60°24' E 005°13'610.8
2017-Apr-19 12:00N 60°25' E 005°03'611.5
2017-Apr-19 11:30N 60°31' E 004°58'611.2
2017-Apr-19 11:00N 60°36' E 004°54'611.4
2017-Apr-19 10:30N 60°41' E 004°50'510.9
2017-Apr-19 10:00N 60°46' E 004°47'5 9.7
2017-Apr-19 09:30N 60°51' E 004°46'611.1
2017-Apr-19 09:00N 60°57' E 004°45'611.2
2017-Apr-19 08:30N 61°02' E 004°45'5 9.7
2017-Apr-19 08:00N 61°07' E 004°45'510.2
2017-Apr-19 07:30N 61°12' E 004°43'5 9.7
2017-Apr-19 07:00N 61°17' E 004°47'510.0
2017-Apr-19 06:30N 61°22' E 004°48'510.3
2017-Apr-19 06:00N 61°26' E 004°53'510.5
2017-Apr-19 05:30N 61°31' E 004°60'5 9.8
2017-Apr-19 05:00N 61°35' E 004°57'510.0
2017-Apr-19 04:30N 61°40' E 004°58'5 9.6
2017-Apr-19 04:00N 61°45' E 004°58'510.8
2017-Apr-19 03:30N 61°48' E 005°07'5 9.8
2017-Apr-19 03:00N 61°51' E 005°16'4 9.1
2017-Apr-19 02:31N 61°54' E 005°09'4 7.2
2017-Apr-19 02:00N 61°57' E 005°09'510.6
2017-Apr-19 01:30N 62°03' E 005°08'510.8
2017-Apr-19 01:01N 62°08' E 005°05'5 9.7
2017-Apr-19 00:30N 62°13' E 005°07'610.9
2017-Apr-19 00:00N 62°17' E 005°14'510.7
2017-Apr-18 23:30N 62°21' E 005°21'510.8
2017-Apr-18 23:00N 62°25' E 005°30'510.3
2017-Apr-18 22:30N 62°27' E 005°40'611.1
2017-Apr-18 22:00N 62°27' E 005°52'510.8
2017-Apr-18 21:30N 62°28' E 006°03'611.4
2017-Apr-18 21:00N 62°33' E 006°10'611.2
2017-Apr-18 20:30N 62°37' E 006°18'510.5
2017-Apr-18 20:00N 62°41' E 006°26'511.0
2017-Apr-18 19:31N 62°45' E 006°33'511.0
2017-Apr-18 19:01N 62°50' E 006°39'510.6
2017-Apr-18 18:30N 62°54' E 006°46'510.3
2017-Apr-18 18:00N 62°58' E 006°53'510.4
2017-Apr-18 17:29N 63°01' E 007°03'510.8
2017-Apr-18 17:00N 63°03' E 007°14'510.9
2017-Apr-18 16:30N 63°04' E 007°25'511.0
2017-Apr-18 16:00N 63°07' E 007°36'611.1
2017-Apr-18 15:30N 63°10' E 007°46'611.1
2017-Apr-18 15:01N 63°13' E 007°56'611.2
2017-Apr-18 14:30N 63°16' E 008°07'1111.1
2017-Apr-18 13:30N 63°23' E 008°27'511.0
2017-Apr-18 13:00N 63°25' E 008°37'611.0
2017-Apr-18 12:30N 63°27' E 008°49'611.3
2017-Apr-18 11:59N 63°29' E 009°01'511.2
2017-Apr-18 11:31N 63°32' E 009°12'510.2
2017-Apr-18 11:00N 63°37' E 009°16'510.5
2017-Apr-18 10:31N 63°42' E 009°16'510.7
2017-Apr-18 10:01N 63°47' E 009°16'510.4
2017-Apr-18 09:30N 63°52' E 009°21'510.4
2017-Apr-18 09:00N 63°57' E 009°26'510.9
2017-Apr-18 08:31N 64°02' E 009°31'611.1
2017-Apr-18 08:00N 64°07' E 009°37'611.3
2017-Apr-18 07:30N 64°12' E 009°43'611.0
2017-Apr-18 07:00N 64°16' E 009°51'611.5
2017-Apr-18 06:30N 64°20' E 009°60'611.4
2017-Apr-18 06:00N 64°24' E 010°09'611.4
2017-Apr-18 05:30N 64°28' E 010°18'611.0
2017-Apr-18 05:00N 64°32' E 010°28'611.3
2017-Apr-18 04:30N 64°36' E 010°37'611.4
2017-Apr-18 04:00N 64°40' E 010°46'611.2
2017-Apr-18 03:30N 64°44' E 010°56'611.2
2017-Apr-18 03:00N 64°48' E 011°06'5 9.9
2017-Apr-18 02:30N 64°51' E 011°14'4 8.9
2017-Apr-18 02:00N 64°54' E 011°22'510.9
2017-Apr-18 01:30N 64°58' E 011°32'510.7
2017-Apr-18 01:01N 65°01' E 011°41'611.2
2017-Apr-18 00:30N 65°06' E 011°48'611.2
2017-Apr-18 00:00N 65°11' E 011°52'611.1
2017-Apr-17 23:30N 65°17' E 011°57'611.1
2017-Apr-17 23:00N 65°21' E 012°04'510.4
2017-Apr-17 22:30N 65°25' E 011°56'510.7
2017-Apr-17 22:00N 65°30' E 012°01'511.1
2017-Apr-17 21:30N 65°35' E 012°08'610.8
2017-Apr-17 21:00N 65°40' E 012°14'611.4
2017-Apr-17 20:29N 65°45' E 012°18'611.3
2017-Apr-17 20:00N 65°51' E 012°22'510.7
2017-Apr-17 19:30N 65°56' E 012°24'511.2
2017-Apr-17 19:00N 66°01' E 012°32'611.2
2017-Apr-17 18:30N 66°05' E 012°41'511.1
2017-Apr-17 18:00N 66°09' E 012°49'611.1
2017-Apr-17 17:30N 66°14' E 012°54'611.1
2017-Apr-17 17:01N 66°20' E 012°57'611.2
2017-Apr-17 16:31N 66°25' E 012°59'510.8
2017-Apr-17 16:00N 66°31' E 012°58'5 9.5
2017-Apr-17 15:30N 66°35' E 013°05'510.6
2017-Apr-17 15:00N 66°40' E 013°08'611.3
2017-Apr-17 14:30N 66°45' E 013°13'1110.6
2017-Apr-17 13:30N 66°54' E 013°27'5 9.0
2017-Apr-17 13:00N 66°58' E 013°33'510.9
2017-Apr-17 12:30N 67°01' E 013°44'510.9
2017-Apr-17 12:00N 67°05' E 013°55'510.7
2017-Apr-17 11:30N 67°09' E 014°02'511.0
2017-Apr-17 11:01N 67°14' E 014°09'510.5
2017-Apr-17 10:31N 67°17' E 014°20'1 1.9
2017-Apr-17 09:58N 67°17' E 014°23'0 0.0
2017-Apr-17 09:28N 67°17' E 014°23'0 0.0
2017-Apr-17 08:58N 67°17' E 014°23'0 0.0
2017-Apr-17 08:28N 67°17' E 014°23'0 0.0
2017-Apr-17 07:58N 67°17' E 014°23'0 0.0
2017-Apr-17 07:28N 67°17' E 014°23'0 0.0
2017-Apr-17 06:58N 67°17' E 014°23'0 0.0
2017-Apr-17 06:28N 67°17' E 014°23'0 0.0
2017-Apr-17 05:58N 67°17' E 014°23'0 0.0
2017-Apr-17 05:31N 67°17' E 014°23'0 0.0
2017-Apr-17 05:01N 67°17' E 014°23'0 0.0
2017-Apr-17 04:30N 67°17' E 014°23'0 0.0
2017-Apr-17 04:00N 67°17' E 014°23'0 0.0
2017-Apr-17 03:30N 67°17' E 014°23'0 0.0
2017-Apr-17 03:00N 67°17' E 014°23'0 0.0
2017-Apr-17 02:30N 67°17' E 014°23'0 0.0
2017-Apr-17 02:00N 67°17' E 014°23'0 0.0
2017-Apr-17 01:30N 67°17' E 014°23'0 0.0
2017-Apr-17 01:00N 67°17' E 014°23'0 0.0
2017-Apr-17 00:30N 67°17' E 014°23'0 0.0
2017-Apr-17 00:00N 67°17' E 014°23'0 0.0
2017-Apr-16 23:30N 67°17' E 014°23'0 0.0
2017-Apr-16 23:00N 67°17' E 014°23'0 0.0
2017-Apr-16 22:30N 67°17' E 014°23'0 0.0
2017-Apr-16 22:00N 67°17' E 014°23'0 0.0
2017-Apr-16 21:30N 67°17' E 014°23'0 0.0
2017-Apr-16 21:00N 67°17' E 014°23'0 0.0
2017-Apr-16 20:30N 67°17' E 014°23'0 0.0
2017-Apr-16 20:00N 67°17' E 014°23'0 0.0
2017-Apr-16 19:30N 67°17' E 014°23'0 0.0
2017-Apr-16 19:00N 67°17' E 014°23'0 0.1
2017-Apr-16 18:30N 67°17' E 014°23'3 6.4
2017-Apr-16 18:01N 67°20' E 014°23'611.3
2017-Apr-16 17:30N 67°26' E 014°27'510.9
2017-Apr-16 17:00N 67°31' E 014°22'611.3
2017-Apr-16 16:30N 67°36' E 014°19'611.3
2017-Apr-16 16:01N 67°42' E 014°16'611.2
2017-Apr-16 15:30N 67°48' E 014°18'611.1
2017-Apr-16 15:00N 67°53' E 014°21'511.2
2017-Apr-16 14:30N 67°58' E 014°25'1111.2
2017-Apr-16 13:30N 68°09' E 014°31'0 0.4
2017-Apr-16 12:59N 68°09' E 014°31'0 0.2
2017-Apr-16 12:29N 68°09' E 014°31'1 1.1
2017-Apr-16 11:59N 68°09' E 014°30'4 8.5
2017-Apr-16 11:31N 68°12' E 014°37'3 5.1
2017-Apr-16 11:00N 68°14' E 014°41'0 0.0
2017-Apr-16 10:30N 68°14' E 014°41'2 4.4
2017-Apr-16 09:58N 68°17' E 014°42'0 0.0
2017-Apr-16 09:28N 68°17' E 014°42'0 0.0
2017-Apr-16 08:58N 68°17' E 014°42'2 4.1
2017-Apr-16 08:29N 68°15' E 014°41'5 9.4
2017-Apr-16 07:59N 68°11' E 014°35'3 4.8
2017-Apr-16 07:28N 68°09' E 014°30'0 0.1
2017-Apr-16 06:58N 68°09' E 014°30'1 1.7
2017-Apr-16 06:29N 68°09' E 014°27'0 0.3
2017-Apr-16 05:58N 68°09' E 014°28'5 9.6
2017-Apr-16 05:30N 68°08' E 014°40'510.7
2017-Apr-16 05:00N 68°11' E 014°50'510.8
2017-Apr-16 04:30N 68°16' E 014°58'510.2
2017-Apr-16 04:00N 68°21' E 015°02'510.3
2017-Apr-16 03:30N 68°26' E 015°09'4 8.1
2017-Apr-16 03:00N 68°29' E 015°12'5 9.9
2017-Apr-16 02:30N 68°29' E 014°58'510.3
2017-Apr-16 02:00N 68°28' E 014°45'510.6
2017-Apr-16 01:30N 68°28' E 014°30'510.1
2017-Apr-16 01:00N 68°31' E 014°18'4 8.0
2017-Apr-16 00:30N 68°34' E 014°11'4 7.9
2017-Apr-16 00:00N 68°37' E 014°07'510.1
2017-Apr-15 23:31N 68°42' E 014°09'5 9.9
2017-Apr-15 23:00N 68°47' E 014°12'510.1
2017-Apr-15 22:30N 68°52' E 014°19'3 5.9
2017-Apr-15 21:58N 68°54' E 014°23'0 0.0
2017-Apr-15 21:28N 68°54' E 014°23'0 0.0
2017-Apr-15 20:58N 68°54' E 014°23'0 0.0
2017-Apr-15 20:28N 68°54' E 014°23'0 0.0
2017-Apr-15 19:58N 68°54' E 014°23'0 0.0
2017-Apr-15 19:28N 68°54' E 014°23'0 0.3
2017-Apr-15 18:58N 68°55' E 014°23'0 0.2
2017-Apr-15 18:28N 68°55' E 014°23'0 0.1
2017-Apr-15 17:58N 68°55' E 014°23'0 0.0
2017-Apr-15 17:28N 68°55' E 014°23'0 0.0
2017-Apr-15 16:58N 68°54' E 014°23'0 0.0
2017-Apr-15 16:28N 68°54' E 014°23'0 0.0
2017-Apr-15 15:58N 68°54' E 014°23'0 0.0
2017-Apr-15 15:28N 68°54' E 014°23'0 0.0
2017-Apr-15 14:58N 68°54' E 014°23'0 0.0
2017-Apr-15 14:28N 68°54' E 014°23'0 0.0
2017-Apr-15 13:28N 68°54' E 014°23'0 0.0
2017-Apr-15 12:58N 68°54' E 014°23'0 0.0
2017-Apr-15 12:28N 68°54' E 014°23'0 0.0
2017-Apr-15 11:58N 68°54' E 014°23'0 0.1
2017-Apr-15 11:28N 68°54' E 014°23'1 1.4
2017-Apr-15 11:00N 68°55' E 014°25'1 2.1
2017-Apr-15 10:30N 68°56' E 014°24'5 9.8
2017-Apr-15 10:00N 68°60' E 014°16'510.1
2017-Apr-15 09:30N 69°04' E 014°10'510.4
2017-Apr-15 09:00N 69°09' E 014°02'0 0.9
2017-Apr-15 08:29N 69°09' E 014°02'0 0.1
2017-Apr-15 07:59N 69°09' E 014°02'0 0.0
2017-Apr-15 07:29N 69°09' E 014°02'0 0.0
2017-Apr-15 06:59N 69°09' E 014°02'0 0.0
2017-Apr-15 06:29N 69°09' E 014°02'0 0.0
2017-Apr-15 05:59N 69°09' E 014°02'0 0.2
2017-Apr-15 05:29N 69°09' E 014°02'0 0.5
2017-Apr-15 04:59N 69°09' E 014°02'0 0.5
2017-Apr-15 04:29N 69°09' E 014°03'0 0.5
2017-Apr-15 03:59N 69°09' E 014°03'0 0.5
2017-Apr-15 03:29N 69°08' E 014°04'0 0.4
2017-Apr-15 02:59N 69°08' E 014°04'0 0.5
2017-Apr-15 02:29N 69°08' E 014°04'0 0.5
2017-Apr-15 01:59N 69°08' E 014°05'0 0.5
2017-Apr-15 01:29N 69°08' E 014°05'0 0.5
2017-Apr-15 00:59N 69°08' E 014°06'0 0.5
2017-Apr-15 00:29N 69°07' E 014°06'0 0.5
2017-Apr-14 23:59N 69°07' E 014°07'0 0.4
2017-Apr-14 23:29N 69°07' E 014°07'0 0.5
2017-Apr-14 22:59N 69°07' E 014°08'0 0.6
2017-Apr-14 22:29N 69°07' E 014°08'0 0.6
2017-Apr-14 21:59N 69°06' E 014°09'0 0.7
2017-Apr-14 21:29N 69°06' E 014°09'0 0.7
2017-Apr-14 20:59N 69°06' E 014°10'0 0.6
2017-Apr-14 20:29N 69°06' E 014°11'0 0.6
2017-Apr-14 19:59N 69°05' E 014°11'0 0.6
2017-Apr-14 19:29N 69°05' E 014°12'0 0.4
2017-Apr-14 18:59N 69°05' E 014°12'0 0.5
2017-Apr-14 18:29N 69°05' E 014°13'0 0.5
2017-Apr-14 17:59N 69°05' E 014°13'0 0.5
2017-Apr-14 17:29N 69°05' E 014°14'0 0.5
2017-Apr-14 16:59N 69°04' E 014°14'0 0.5
2017-Apr-14 16:29N 69°04' E 014°14'0 0.4
2017-Apr-14 15:59N 69°04' E 014°14'0 0.5
2017-Apr-14 15:29N 69°04' E 014°14'0 0.4
2017-Apr-14 14:59N 69°03' E 014°15'0 0.1
2017-Apr-14 14:29N 69°03' E 014°15'1 0.6
2017-Apr-14 13:29N 69°03' E 014°15'0 0.9
2017-Apr-14 12:59N 69°02' E 014°15'0 0.0
2017-Apr-14 12:29N 69°02' E 014°15'0 0.6
2017-Apr-14 11:59N 69°03' E 014°15'0 0.9
2017-Apr-14 11:29N 69°03' E 014°15'0 0.7
2017-Apr-14 10:59N 69°03' E 014°16'0 0.7
2017-Apr-14 10:29N 69°02' E 014°15'0 0.1
2017-Apr-14 09:59N 69°02' E 014°15'0 0.0
2017-Apr-14 09:29N 69°02' E 014°15'0 0.0
2017-Apr-14 09:00N 69°02' E 014°15'610.8
2017-Apr-14 08:29N 68°57' E 014°16'2 3.2
2017-Apr-14 07:58N 68°55' E 014°16'0 0.3
2017-Apr-14 07:28N 68°55' E 014°17'0 0.1
2017-Apr-14 06:58N 68°55' E 014°17'0 0.0
2017-Apr-14 06:28N 68°55' E 014°17'0 0.0
2017-Apr-14 05:58N 68°55' E 014°17'0 0.1
2017-Apr-14 05:28N 68°55' E 014°17'0 0.1
2017-Apr-14 04:58N 68°55' E 014°17'0 0.1
2017-Apr-14 04:28N 68°55' E 014°17'0 0.2
2017-Apr-14 03:58N 68°55' E 014°17'0 0.2
2017-Apr-14 03:28N 68°55' E 014°17'0 0.0
2017-Apr-14 02:58N 68°55' E 014°17'0 0.1
2017-Apr-14 02:28N 68°55' E 014°17'0 0.1
2017-Apr-14 01:58N 68°55' E 014°17'0 0.1
2017-Apr-14 01:28N 68°55' E 014°17'0 0.1
2017-Apr-14 00:58N 68°55' E 014°17'0 0.1
2017-Apr-14 00:28N 68°55' E 014°17'0 0.2
2017-Apr-13 23:58N 68°55' E 014°17'0 0.1
2017-Apr-13 23:28N 68°55' E 014°17'0 0.2
2017-Apr-13 22:58N 68°55' E 014°17'0 0.1
2017-Apr-13 22:28N 68°55' E 014°17'0 0.2
2017-Apr-13 21:58N 68°55' E 014°17'0 0.2
2017-Apr-13 21:28N 68°55' E 014°17'0 0.1
2017-Apr-13 20:58N 68°55' E 014°17'0 0.2
2017-Apr-13 20:28N 68°55' E 014°17'0 0.2
2017-Apr-13 19:58N 68°55' E 014°17'0 0.4
2017-Apr-13 19:28N 68°55' E 014°18'0 0.5
2017-Apr-13 18:58N 68°55' E 014°18'0 0.6
2017-Apr-13 18:28N 68°55' E 014°19'0 0.7
2017-Apr-13 17:58N 68°55' E 014°20'0 0.7
2017-Apr-13 17:28N 68°55' E 014°21'0 0.4
2017-Apr-13 16:58N 68°55' E 014°22'0 0.3
2017-Apr-13 16:28N 68°55' E 014°22'0 0.3
2017-Apr-13 15:58N 68°55' E 014°22'0 0.5
2017-Apr-13 15:28N 68°55' E 014°22'0 0.4
2017-Apr-13 14:58N 68°55' E 014°23'0 0.3
2017-Apr-13 14:28N 68°55' E 014°23'0 0.3
2017-Apr-13 13:28N 68°55' E 014°23'0 0.1
2017-Apr-13 12:58N 68°55' E 014°23'0 0.0
2017-Apr-13 12:28N 68°55' E 014°23'0 0.1
2017-Apr-13 11:58N 68°55' E 014°23'0 0.0
2017-Apr-13 11:28N 68°55' E 014°23'0 0.2
2017-Apr-13 10:58N 68°54' E 014°23'0 0.0
2017-Apr-13 10:28N 68°54' E 014°23'0 0.0
2017-Apr-13 09:58N 68°54' E 014°23'0 0.0
2017-Apr-13 09:28N 68°54' E 014°23'0 0.0
2017-Apr-13 08:58N 68°54' E 014°23'0 0.2
2017-Apr-13 08:28N 68°54' E 014°23'0 0.0
2017-Apr-13 07:58N 68°54' E 014°23'  

Dump ship's entire track history